createdAt,value
2023-02-22T00:01:35.858Z,91.20
2023-02-22T00:04:05.217Z,91.20
2023-02-22T00:06:32.927Z,91.20
2023-02-22T00:09:02.302Z,91.20
2023-02-22T00:11:31.613Z,91.20
2023-02-22T00:13:58.799Z,91.20
2023-02-22T00:16:26.840Z,91.30
2023-02-22T00:18:54.043Z,91.30
2023-02-22T00:21:21.886Z,91.40
2023-02-22T00:23:49.821Z,91.40
2023-02-22T00:26:19.714Z,91.40
2023-02-22T00:28:53.621Z,91.50
2023-02-22T00:31:21.565Z,91.60
2023-02-22T00:33:49.881Z,91.50
2023-02-22T00:36:17.765Z,91.50
2023-02-22T00:38:44.697Z,91.60
2023-02-22T00:41:12.521Z,91.70
2023-02-22T00:43:39.444Z,91.80
2023-02-22T00:46:06.432Z,91.90
2023-02-22T00:48:33.354Z,91.90
2023-02-22T00:51:00.323Z,92.00
2023-02-22T00:53:27.696Z,92.10
2023-02-22T00:55:54.744Z,92.20
2023-02-22T00:58:22.449Z,92.20
2023-02-22T01:00:50.037Z,92.30
2023-02-22T01:03:20.489Z,92.30
2023-02-22T01:05:47.808Z,92.30
2023-02-22T01:08:17.033Z,92.40
2023-02-22T01:10:44.503Z,92.40
2023-02-22T01:13:13.078Z,92.50
2023-02-22T01:15:42.951Z,92.60
2023-02-22T01:18:12.603Z,92.70
2023-02-22T01:20:39.578Z,92.70
2023-02-22T01:23:08.187Z,92.80
2023-02-22T01:25:35.857Z,92.80
2023-02-22T01:28:05.274Z,92.90
2023-02-22T01:30:34.243Z,92.90
2023-02-22T01:33:02.964Z,92.90
2023-02-22T01:35:32.995Z,93.00
2023-02-22T01:37:59.976Z,93.10
2023-02-22T01:40:30.396Z,93.20
2023-02-22T01:43:00.492Z,93.30
2023-02-22T01:45:30.355Z,93.40
2023-02-22T01:48:04.539Z,93.40
2023-02-22T01:50:35.592Z,93.50
2023-02-22T01:53:03.280Z,93.50
2023-02-22T01:55:31.873Z,93.50
2023-02-22T01:57:59.031Z,93.50
2023-02-22T02:00:27.731Z,93.60
2023-02-22T02:03:27.498Z,93.60
2023-02-22T02:05:58.835Z,93.70
2023-02-22T02:09:16.104Z,93.80
2023-02-22T02:11:43.399Z,93.80
2023-02-22T02:14:11.684Z,93.80
2023-02-22T02:16:48.110Z,93.90
2023-02-22T02:19:47.954Z,94.00
2023-02-22T02:22:26.589Z,94.10
2023-02-22T02:25:24.172Z,94.10
2023-02-22T02:28:21.789Z,94.20
2023-02-22T02:31:26.370Z,94.20
2023-02-22T02:34:02.135Z,94.30
2023-02-22T02:36:33.320Z,94.30
2023-02-22T02:39:19.570Z,94.50
2023-02-22T02:41:50.818Z,94.50
2023-02-22T02:44:31.092Z,94.60
2023-02-22T02:47:11.123Z,94.70
2023-02-22T02:49:48.325Z,94.70
2023-02-22T02:52:19.086Z,94.80
2023-02-22T02:54:48.693Z,94.90
2023-02-22T02:57:15.697Z,95.00
2023-02-22T02:59:43.189Z,95.00
2023-02-22T03:02:28.628Z,95.10
2023-02-22T03:05:15.115Z,95.20
2023-02-22T03:07:53.928Z,95.20
2023-02-22T03:10:45.558Z,95.20
2023-02-22T03:13:19.446Z,95.20
2023-02-22T03:15:53.737Z,95.20
2023-02-22T03:18:39.541Z,95.20
2023-02-22T03:21:21.657Z,95.40
2023-02-22T03:23:58.713Z,95.50
2023-02-22T03:26:33.912Z,95.50
2023-02-22T03:29:05.298Z,95.50
2023-02-22T03:31:39.983Z,95.60
2023-02-22T03:34:15.732Z,95.70
2023-02-22T03:36:50.143Z,95.80
2023-02-22T03:39:20.355Z,95.80
2023-02-22T03:41:52.927Z,96.00
2023-02-22T03:44:27.531Z,96.10
2023-02-22T03:46:57.836Z,96.20
2023-02-22T03:49:42.722Z,96.40
2023-02-22T03:52:11.976Z,96.50
2023-02-22T03:54:40.963Z,96.60
2023-02-22T03:57:28.270Z,96.80
2023-02-22T04:00:08.789Z,97.00
2023-02-22T04:02:41.862Z,97.20
2023-02-22T04:05:14.269Z,97.30
2023-02-22T04:07:42.709Z,97.60
2023-02-22T04:10:12.687Z,97.80
2023-02-22T04:12:39.781Z,97.90
2023-02-22T04:15:09.417Z,98.10
2023-02-22T04:17:36.852Z,98.30
2023-02-22T04:20:06.792Z,98.30
2023-02-22T04:22:54.997Z,98.40
2023-02-22T04:25:23.856Z,98.50
2023-02-22T04:27:52.753Z,98.80
2023-02-22T04:30:25.780Z,99.50
2023-02-22T04:32:53.207Z,99.30
2023-02-22T04:35:22.834Z,99.50
2023-02-22T04:37:49.769Z,99.60
2023-02-22T04:40:18.002Z,99.60
2023-02-22T04:42:45.018Z,99.70
2023-02-22T04:45:12.558Z,99.70
2023-02-22T04:47:39.995Z,99.90
2023-02-22T04:50:08.693Z,99.90
2023-02-22T04:52:36.106Z,99.90
2023-02-22T04:55:04.820Z,99.90
2023-02-22T04:57:32.824Z,99.90
2023-02-22T04:59:59.862Z,99.90
2023-02-22T05:02:27.148Z,99.90
2023-02-22T05:04:54.165Z,99.90
2023-02-22T05:07:21.129Z,99.90
2023-02-22T05:09:48.135Z,99.90
2023-02-22T05:12:15.301Z,99.90
2023-02-22T05:14:42.218Z,99.90
2023-02-22T05:17:09.256Z,99.90
2023-02-22T05:19:36.244Z,99.90
2023-02-22T05:22:05.698Z,99.90
2023-02-22T05:24:32.708Z,99.90
2023-02-22T05:26:59.711Z,99.90
2023-02-22T05:29:26.685Z,99.90
2023-02-22T05:31:53.781Z,99.90
2023-02-22T05:34:20.825Z,99.90
2023-02-22T05:36:47.791Z,99.90
2023-02-22T05:39:14.749Z,99.90
2023-02-22T05:41:41.640Z,99.90
2023-02-22T05:44:08.638Z,99.90
2023-02-22T05:46:35.778Z,99.90
2023-02-22T05:49:02.744Z,99.90
2023-02-22T05:51:29.731Z,99.90
2023-02-22T05:53:56.939Z,99.90
2023-02-22T05:56:29.130Z,99.90
2023-02-22T05:58:57.220Z,99.90
2023-02-22T06:01:24.658Z,99.90
2023-02-22T06:03:52.085Z,99.90
2023-02-22T06:06:22.212Z,99.90
2023-02-22T06:08:49.842Z,99.90
2023-02-22T06:11:17.251Z,99.90
2023-02-22T06:13:50.477Z,99.90
2023-02-22T06:16:17.458Z,99.90
2023-02-22T06:18:44.405Z,99.90
2023-02-22T06:21:11.325Z,99.90
2023-02-22T06:23:38.339Z,99.90
2023-02-22T06:26:05.793Z,99.90
2023-02-22T06:28:32.700Z,99.90
2023-02-22T06:30:59.630Z,99.90
2023-02-22T06:33:26.542Z,99.90
2023-02-22T06:35:53.478Z,99.90
2023-02-22T06:38:25.657Z,99.90
2023-02-22T06:40:52.599Z,99.90
2023-02-22T06:43:19.507Z,99.90
2023-02-22T06:45:46.726Z,99.90
2023-02-22T06:48:14.216Z,99.90
2023-02-22T06:50:41.170Z,99.90
2023-02-22T06:53:09.282Z,99.90
2023-02-22T06:55:36.561Z,99.90
2023-02-22T06:58:05.137Z,99.90
2023-02-22T07:00:32.766Z,99.90
2023-02-22T07:03:03.864Z,99.90
2023-02-22T07:05:30.952Z,99.90
2023-02-22T07:08:05.321Z,99.90
2023-02-22T07:10:34.156Z,99.90
2023-02-22T07:13:01.629Z,99.90
2023-02-22T07:15:30.396Z,99.90
2023-02-22T07:17:57.685Z,99.90
2023-02-22T07:20:26.807Z,99.90
2023-02-22T07:22:53.847Z,99.90
2023-02-22T07:25:22.691Z,99.90
2023-02-22T07:27:49.652Z,99.90
2023-02-22T07:30:18.819Z,99.90
2023-02-22T07:32:46.844Z,99.90
2023-02-22T07:35:19.081Z,99.90
2023-02-22T07:37:46.084Z,99.90
2023-02-22T07:40:13.035Z,99.90
2023-02-22T07:43:02.353Z,99.80
2023-02-22T07:45:36.224Z,99.50
2023-02-22T07:48:05.593Z,99.20
2023-02-22T07:50:33.843Z,99.10
2023-02-22T07:53:06.871Z,98.80
2023-02-22T07:55:34.704Z,98.50
2023-02-22T07:58:04.954Z,98.20
2023-02-22T08:00:40.332Z,97.90
2023-02-22T08:03:14.730Z,97.50
2023-02-22T08:05:45.194Z,97.00
2023-02-22T08:08:14.662Z,96.80
2023-02-22T08:10:42.668Z,96.40
2023-02-22T08:13:10.449Z,96.00
2023-02-22T08:15:39.784Z,95.40
2023-02-22T08:18:09.532Z,94.70
2023-02-22T08:20:38.504Z,93.80
2023-02-22T08:23:06.694Z,92.60
2023-02-22T08:25:33.920Z,91.60
2023-02-22T08:28:04.572Z,90.50
2023-02-22T08:30:32.918Z,88.60
2023-02-22T08:33:00.039Z,87.50
2023-02-22T08:35:27.726Z,87.30
2023-02-22T08:37:58.686Z,87.20
2023-02-22T08:40:27.973Z,86.50
2023-02-22T08:42:55.234Z,85.50
2023-02-22T08:45:22.251Z,84.20
2023-02-22T08:47:49.688Z,83.50
2023-02-22T08:50:23.402Z,83.20
2023-02-22T08:52:51.328Z,82.70
2023-02-22T08:55:27.116Z,82.30
2023-02-22T08:57:54.070Z,81.40
2023-02-22T09:00:25.353Z,78.50
2023-02-22T09:02:53.087Z,74.80
2023-02-22T09:05:20.238Z,73.90
2023-02-22T09:07:47.640Z,74.90
2023-02-22T09:10:21.146Z,75.30
2023-02-22T09:12:48.103Z,76.50
2023-02-22T09:15:15.572Z,77.50
2023-02-22T09:17:42.555Z,79.30
2023-02-22T09:20:12.426Z,79.40
2023-02-22T09:22:39.779Z,79.40
2023-02-22T09:25:16.213Z,79.50
2023-02-22T09:27:44.191Z,79.10
2023-02-22T09:30:24.166Z,78.80
2023-02-22T09:32:55.742Z,77.00
2023-02-22T09:35:27.437Z,74.80
2023-02-22T09:37:59.312Z,72.60
2023-02-22T09:40:31.959Z,71.60
2023-02-22T09:43:33.737Z,69.60
2023-02-22T09:46:20.977Z,68.00
2023-02-22T09:48:59.888Z,66.20
2023-02-22T09:51:49.431Z,65.00
2023-02-22T09:54:22.780Z,63.90
2023-02-22T09:56:52.562Z,65.10
2023-02-22T09:59:30.081Z,65.80
2023-02-22T10:02:31.598Z,67.10
2023-02-22T10:05:37.871Z,67.90
2023-02-22T10:08:10.261Z,68.90
2023-02-22T10:10:39.728Z,69.80
2023-02-22T10:13:33.014Z,70.80
2023-02-22T10:16:33.822Z,71.40
2023-02-22T10:19:08.261Z,71.60
2023-02-22T10:21:58.220Z,72.10
2023-02-22T10:24:27.924Z,72.50
2023-02-22T10:26:57.917Z,72.60
2023-02-22T10:29:27.626Z,72.10
2023-02-22T10:31:59.311Z,72.00
2023-02-22T10:34:30.587Z,71.80
2023-02-22T10:37:25.635Z,72.10
2023-02-22T10:39:58.631Z,72.30
2023-02-22T10:42:27.542Z,72.60
2023-02-22T10:44:54.514Z,72.70
2023-02-22T10:47:23.078Z,71.40
2023-02-22T10:49:57.580Z,68.80
2023-02-22T10:52:34.651Z,65.40
2023-02-22T10:55:14.536Z,64.30
2023-02-22T10:57:46.253Z,64.90
2023-02-22T11:00:26.430Z,65.90
2023-02-22T11:03:02.533Z,66.70
2023-02-22T11:05:36.892Z,65.80
2023-02-22T11:08:17.181Z,66.30
2023-02-22T11:10:44.568Z,66.80
2023-02-22T11:13:18.724Z,67.90
2023-02-22T11:15:45.635Z,68.60
2023-02-22T11:18:35.619Z,69.20
2023-02-22T11:21:08.292Z,69.60
2023-02-22T11:23:37.654Z,70.70
2023-02-22T11:26:24.905Z,71.70
2023-02-22T11:28:56.340Z,72.00
2023-02-22T11:31:29.130Z,72.30
2023-02-22T11:33:59.882Z,71.80
2023-02-22T11:36:43.357Z,71.80
2023-02-22T11:39:27.660Z,71.30
2023-02-22T11:41:57.913Z,71.00
2023-02-22T11:44:30.636Z,70.60
2023-02-22T11:47:06.888Z,70.70
2023-02-22T11:49:41.552Z,70.70
2023-02-22T11:52:42.538Z,70.60
2023-02-22T11:55:42.372Z,70.30
2023-02-22T11:58:41.441Z,69.80
2023-02-22T12:01:30.246Z,69.10
2023-02-22T12:04:15.854Z,69.20
2023-02-22T12:06:52.019Z,69.30
2023-02-22T12:09:33.023Z,69.90
2023-02-22T12:12:28.134Z,69.90
2023-02-22T12:15:18.205Z,70.20
2023-02-22T12:18:18.597Z,70.50
2023-02-22T12:20:47.929Z,70.50
2023-02-22T12:23:33.587Z,70.80
2023-02-22T12:26:23.120Z,70.80
2023-02-22T12:29:01.434Z,71.00
2023-02-22T12:31:42.136Z,71.10
2023-02-22T12:34:27.350Z,71.30
2023-02-22T12:37:18.014Z,71.60
2023-02-22T12:40:08.873Z,71.70
2023-02-22T12:43:00.829Z,71.90
2023-02-22T12:45:46.460Z,71.70
2023-02-22T12:48:42.241Z,72.20
2023-02-22T12:51:14.800Z,72.10
2023-02-22T12:53:52.828Z,71.90
2023-02-22T12:56:34.086Z,71.40
2023-02-22T12:59:34.184Z,70.80
2023-02-22T13:02:22.537Z,71.00
2023-02-22T13:04:49.629Z,70.80
2023-02-22T13:07:30.571Z,70.90
2023-02-22T13:10:14.537Z,71.40
2023-02-22T13:12:57.700Z,72.00
2023-02-22T13:15:36.960Z,72.00
2023-02-22T13:18:19.088Z,72.90
2023-02-22T13:20:46.067Z,73.40
2023-02-22T13:23:25.749Z,73.70
2023-02-22T13:26:23.749Z,74.40
2023-02-22T13:29:16.473Z,74.90
2023-02-22T13:31:54.614Z,75.40
2023-02-22T13:34:40.313Z,75.80
2023-02-22T13:37:52.063Z,76.30
2023-02-22T13:40:30.954Z,76.40
2023-02-22T13:43:30.178Z,76.40
2023-02-22T13:46:29.300Z,76.90
2023-02-22T13:49:08.180Z,76.90
2023-02-22T13:51:59.040Z,77.10
2023-02-22T13:54:45.061Z,77.30
2023-02-22T13:57:25.798Z,77.40
2023-02-22T14:00:14.485Z,77.60
2023-02-22T14:03:01.025Z,77.60
2023-02-22T14:05:41.280Z,77.90
2023-02-22T14:08:28.162Z,78.20
2023-02-22T14:10:56.273Z,78.30
2023-02-22T14:13:27.774Z,78.50
2023-02-22T14:16:00.649Z,78.50
2023-02-22T14:18:31.749Z,78.40
2023-02-22T14:21:11.710Z,78.70
2023-02-22T14:23:42.934Z,78.60
2023-02-22T14:26:20.822Z,78.50
2023-02-22T14:29:02.786Z,78.50
2023-02-22T14:31:54.810Z,78.50
2023-02-22T14:34:41.862Z,78.60
2023-02-22T14:37:14.622Z,78.40
2023-02-22T14:39:46.797Z,78.40
2023-02-22T14:42:13.860Z,78.60
2023-02-22T14:44:51.423Z,78.70
2023-02-22T14:47:28.257Z,78.80
2023-02-22T14:50:03.749Z,79.00
2023-02-22T14:52:35.044Z,78.90
2023-02-22T14:55:24.357Z,79.10
2023-02-22T14:58:08.719Z,79.10
2023-02-22T15:00:45.904Z,79.30
2023-02-22T15:03:40.681Z,79.30
2023-02-22T15:06:14.905Z,79.20
2023-02-22T15:08:48.680Z,79.40
2023-02-22T15:11:31.119Z,79.30
2023-02-22T15:13:59.591Z,79.20
2023-02-22T15:16:34.205Z,79.30
2023-02-22T15:19:07.772Z,79.40
2023-02-22T15:21:35.563Z,79.50
2023-02-22T15:24:06.615Z,79.80
2023-02-22T15:26:49.038Z,80.10
2023-02-22T15:29:23.056Z,80.30
2023-02-22T15:31:50.895Z,80.60
2023-02-22T15:34:24.467Z,80.80
2023-02-22T15:36:56.261Z,81.00
2023-02-22T15:39:34.505Z,81.20
2023-02-22T15:42:20.813Z,81.40
2023-02-22T15:44:50.193Z,81.40
2023-02-22T15:47:20.241Z,81.50
2023-02-22T15:50:25.917Z,81.50
2023-02-22T15:53:04.012Z,81.40
2023-02-22T15:55:37.277Z,81.40
2023-02-22T15:58:10.881Z,81.70
2023-02-22T16:00:40.626Z,81.70
2023-02-22T16:03:13.609Z,81.90
2023-02-22T16:05:49.881Z,81.90
2023-02-22T16:08:29.343Z,82.00
2023-02-22T16:11:04.638Z,81.90
2023-02-22T16:13:35.882Z,81.80
2023-02-22T16:16:22.731Z,81.80
2023-02-22T16:18:51.536Z,82.00
2023-02-22T16:21:21.659Z,82.10
2023-02-22T16:23:51.847Z,82.30
2023-02-22T16:26:33.782Z,82.60
2023-02-22T16:29:07.567Z,82.80
2023-02-22T16:31:38.274Z,82.90
2023-02-22T16:34:08.168Z,82.90
2023-02-22T16:36:51.596Z,83.00
2023-02-22T16:39:29.938Z,83.50
2023-02-22T16:42:03.792Z,83.80
2023-02-22T16:44:31.383Z,84.20
2023-02-22T16:47:00.602Z,84.40
2023-02-22T16:49:27.801Z,84.70
2023-02-22T16:51:58.825Z,84.90
2023-02-22T16:54:34.429Z,85.20
2023-02-22T16:57:03.958Z,85.60
2023-02-22T16:59:38.639Z,85.80
2023-02-22T17:02:10.121Z,86.00
2023-02-22T17:04:37.059Z,86.20
2023-02-22T17:07:05.412Z,86.50
2023-02-22T17:09:32.958Z,86.80
2023-02-22T17:12:00.340Z,87.00
2023-02-22T17:14:33.599Z,87.30
2023-02-22T17:17:00.613Z,87.50
2023-02-22T17:19:27.543Z,87.70
2023-02-22T17:21:54.781Z,88.00
2023-02-22T17:24:24.717Z,88.30
2023-02-22T17:26:53.166Z,88.60
2023-02-22T17:29:20.678Z,88.80
2023-02-22T17:31:48.991Z,89.10
2023-02-22T17:34:16.251Z,89.50
2023-02-22T17:36:43.660Z,89.80
2023-02-22T17:39:11.030Z,90.00
2023-02-22T17:41:40.457Z,90.20
2023-02-22T17:44:07.815Z,90.30
2023-02-22T17:46:36.704Z,90.40
2023-02-22T17:49:03.726Z,90.50
2023-02-22T17:51:30.706Z,90.60
2023-02-22T17:53:57.663Z,90.70
2023-02-22T17:56:24.645Z,90.70
2023-02-22T17:58:54.366Z,90.70
2023-02-22T18:01:24.970Z,90.80
2023-02-22T18:03:53.237Z,90.90
2023-02-22T18:06:25.164Z,90.90
2023-02-22T18:08:55.528Z,90.90
2023-02-22T18:11:26.586Z,90.80
2023-02-22T18:13:58.444Z,90.80
2023-02-22T18:16:26.778Z,90.80
2023-02-22T18:18:55.155Z,90.70
2023-02-22T18:21:23.344Z,90.70
2023-02-22T18:23:50.361Z,90.60
2023-02-22T18:26:20.377Z,90.60
2023-02-22T18:28:50.833Z,90.60
2023-02-22T18:31:20.193Z,90.60
2023-02-22T18:33:50.503Z,90.70
2023-02-22T18:36:23.000Z,90.70
2023-02-22T18:38:52.526Z,90.70
2023-02-22T18:41:25.098Z,90.80
2023-02-22T18:43:54.073Z,90.80
2023-02-22T18:46:23.120Z,90.80
2023-02-22T18:48:54.600Z,90.80
2023-02-22T18:51:22.692Z,90.80
2023-02-22T18:53:50.142Z,90.70
2023-02-22T18:56:22.510Z,90.70
2023-02-22T18:58:58.712Z,90.80
2023-02-22T19:01:26.245Z,90.80
2023-02-22T19:03:53.590Z,90.90
2023-02-22T19:06:23.722Z,91.00
2023-02-22T19:08:51.181Z,91.10
2023-02-22T19:11:21.899Z,91.20
2023-02-22T19:13:51.666Z,91.40
2023-02-22T19:16:21.336Z,91.50
2023-02-22T19:18:50.095Z,91.50
2023-02-22T19:21:17.452Z,91.60
2023-02-22T19:23:48.634Z,91.70
2023-02-22T19:26:21.169Z,91.80
2023-02-22T19:28:49.073Z,92.00
2023-02-22T19:31:31.551Z,92.00
2023-02-22T19:34:09.153Z,92.20
2023-02-22T19:36:41.492Z,92.30
2023-02-22T19:39:09.743Z,92.30
2023-02-22T19:41:36.794Z,92.20
2023-02-22T19:44:05.182Z,92.10
2023-02-22T19:46:32.464Z,92.00
2023-02-22T19:49:00.790Z,91.90
2023-02-22T19:51:29.669Z,91.90
2023-02-22T19:53:59.143Z,91.90
2023-02-22T19:56:31.015Z,91.80
2023-02-22T19:59:09.236Z,91.70
2023-02-22T20:01:37.132Z,91.60
2023-02-22T20:04:06.733Z,91.60
2023-02-22T20:06:42.734Z,91.60
2023-02-22T20:09:12.992Z,91.60
2023-02-22T20:11:40.389Z,91.60
2023-02-22T20:14:07.359Z,91.50
2023-02-22T20:16:35.726Z,91.50
2023-02-22T20:19:02.845Z,91.60
2023-02-22T20:21:31.923Z,91.70
2023-02-22T20:24:03.007Z,91.90
2023-02-22T20:26:32.100Z,92.10
2023-02-22T20:28:59.382Z,92.10
2023-02-22T20:31:26.970Z,92.10
2023-02-22T20:33:55.994Z,92.10
2023-02-22T20:36:23.249Z,92.00
2023-02-22T20:38:59.146Z,91.90
2023-02-22T20:41:31.569Z,91.80
2023-02-22T20:43:59.952Z,91.70
2023-02-22T20:46:31.323Z,91.70
2023-02-22T20:49:01.285Z,91.60
2023-02-22T20:51:29.478Z,91.60
2023-02-22T20:54:00.275Z,91.70
2023-02-22T20:56:29.481Z,91.70
2023-02-22T20:59:01.939Z,91.80
2023-02-22T21:01:29.558Z,91.80
2023-02-22T21:04:01.388Z,91.90
2023-02-22T21:06:29.058Z,92.10
2023-02-22T21:08:58.437Z,92.30
2023-02-22T21:11:27.505Z,92.40
2023-02-22T21:13:54.764Z,92.50
2023-02-22T21:16:30.418Z,92.60
2023-02-22T21:19:00.835Z,92.70
2023-02-22T21:21:29.193Z,92.80
2023-02-22T21:24:01.748Z,92.90
2023-02-22T21:26:31.944Z,92.90
2023-02-22T21:29:04.739Z,93.10
2023-02-22T21:31:33.081Z,93.20
2023-02-22T21:34:01.165Z,93.50
2023-02-22T21:36:28.877Z,93.70
2023-02-22T21:39:02.046Z,93.90
2023-02-22T21:41:30.982Z,94.10
2023-02-22T21:43:59.282Z,94.20
2023-02-22T21:46:29.224Z,94.50
2023-02-22T21:48:58.619Z,94.70
2023-02-22T21:51:32.090Z,95.00
2023-02-22T21:54:01.477Z,95.30
2023-02-22T21:56:30.151Z,95.50
2023-02-22T21:59:03.501Z,95.90
2023-02-22T22:01:36.582Z,96.40
2023-02-22T22:04:04.899Z,96.70
2023-02-22T22:06:34.408Z,97.10
2023-02-22T22:09:04.993Z,97.30
2023-02-22T22:11:32.906Z,97.50
2023-02-22T22:14:00.485Z,97.70
2023-02-22T22:16:29.701Z,97.90
2023-02-22T22:18:57.291Z,98.10
2023-02-22T22:21:26.230Z,98.20
2023-02-22T22:23:57.507Z,98.30
2023-02-22T22:26:26.062Z,98.30
2023-02-22T22:28:59.209Z,98.40
2023-02-22T22:31:27.660Z,98.30
2023-02-22T22:33:56.359Z,98.20
2023-02-22T22:36:25.171Z,98.40
2023-02-22T22:38:52.886Z,98.50
2023-02-22T22:41:22.023Z,98.50
2023-02-22T22:43:49.016Z,98.40
2023-02-22T22:46:17.528Z,98.30
2023-02-22T22:48:49.254Z,98.30
2023-02-22T22:51:20.446Z,98.10
2023-02-22T22:53:49.829Z,98.00
2023-02-22T22:56:29.306Z,97.90
2023-02-22T22:58:58.789Z,97.90
2023-02-22T23:01:33.023Z,97.90
2023-02-22T23:04:02.481Z,97.80
2023-02-22T23:06:33.128Z,97.70
2023-02-22T23:09:01.849Z,97.70
2023-02-22T23:11:33.667Z,97.70
2023-02-22T23:14:03.642Z,97.70
2023-02-22T23:16:32.307Z,97.80
2023-02-22T23:18:59.317Z,97.90
2023-02-22T23:21:26.277Z,98.10
2023-02-22T23:23:58.627Z,98.20
2023-02-22T23:26:26.879Z,98.30
2023-02-22T23:28:59.187Z,98.40
2023-02-22T23:31:29.396Z,98.30
2023-02-22T23:33:58.974Z,98.20
2023-02-22T23:36:26.653Z,98.00
2023-02-22T23:38:54.261Z,98.00
2023-02-22T23:41:25.043Z,97.90
2023-02-22T23:43:52.018Z,97.80
2023-02-22T23:46:19.279Z,97.70
2023-02-22T23:48:54.628Z,97.50
2023-02-22T23:51:25.614Z,97.40
2023-02-22T23:53:55.830Z,97.30
2023-02-22T23:56:26.534Z,97.10
2023-02-22T23:58:57.461Z,97.10
